Time;durP1;ratioP1;P1;durP2;ratioP2;P2;SDS_P1;SDS_P2;PMS_P1;PMS_P2;Temp;Humidity;BMP_temperature;BMP_pressure;BME280_temperature;BME280_humidity;BME280_pressure;Samples;Min_cycle;Max_cycle;Signal;HPM_P1;HPM_P2
2023/05/15 00:01:43;;;;;;;9.03;8.13;;;12.70;99.90;;;;;;5043689;28;20171;-68
2023/05/15 00:04:08;;;;;;;8.27;7.50;;;12.80;99.90;;;;;;5043438;28;20406;-68
2023/05/15 00:06:34;;;;;;;10.40;9.40;;;13.00;99.90;;;;;;5040373;28;20208;-68
2023/05/15 00:09:00;;;;;;;8.30;7.50;;;13.00;99.90;;;;;;5045665;28;20210;-67
2023/05/15 00:11:26;;;;;;;9.33;8.43;;;13.00;99.90;;;;;;5041286;28;20262;-68
2023/05/15 00:13:52;;;;;;;10.00;7.93;;;13.00;99.90;;;;;;5039728;28;20581;-67
2023/05/15 00:16:18;;;;;;;7.97;7.17;;;12.90;99.90;;;;;;5045712;28;20955;-67
2023/05/15 00:18:44;;;;;;;8.23;7.23;;;12.80;99.90;;;;;;5039597;28;20462;-67
2023/05/15 00:21:09;;;;;;;11.67;8.47;;;12.80;99.90;;;;;;5046314;28;20191;-67
2023/05/15 00:23:35;;;;;;;10.03;9.03;;;12.80;99.90;;;;;;5039446;28;20665;-69
2023/05/15 00:26:00;;;;;;;10.77;9.77;;;12.80;99.90;;;;;;5045976;28;20185;-67
2023/05/15 00:28:26;;;;;;;12.77;10.10;;;12.80;99.90;;;;;;5040612;28;20206;-67
2023/05/15 00:30:52;;;;;;;9.93;9.03;;;12.70;99.90;;;;;;5029073;28;20630;-68
2023/05/15 00:33:17;;;;;;;10.93;9.73;;;12.60;99.90;;;;;;5039318;28;20202;-69
2023/05/15 00:35:43;;;;;;;12.03;8.47;;;12.50;99.90;;;;;;5037208;28;20206;-67
2023/05/15 00:38:09;;;;;;;11.17;8.73;;;12.40;99.90;;;;;;5041156;28;20199;-68
2023/05/15 00:40:36;;;;;;;11.47;10.47;;;12.30;99.90;;;;;;5043433;28;20172;-68
2023/05/15 00:43:03;;;;;;;10.93;9.83;;;12.30;99.90;;;;;;5045774;28;20268;-67
2023/05/15 00:45:29;;;;;;;12.00;9.83;;;12.30;99.90;;;;;;5040011;28;20573;-67
2023/05/15 00:47:57;;;;;;;11.57;9.40;;;12.30;99.90;;;;;;5033656;28;20469;-68
2023/05/15 00:50:24;;;;;;;10.63;8.83;;;12.20;99.90;;;;;;5045059;28;20423;-69
2023/05/15 00:52:50;;;;;;;12.70;10.33;;;12.10;99.90;;;;;;5038767;28;20964;-67
2023/05/15 00:55:16;;;;;;;10.70;9.70;;;12.20;99.90;;;;;;5045023;28;20417;-68
2023/05/15 00:57:43;;;;;;;10.87;9.93;;;12.30;99.90;;;;;;5038875;28;20458;-68
2023/05/15 01:00:09;;;;;;;9.97;8.97;;;12.20;99.90;;;;;;5046387;28;20205;-67
2023/05/15 01:02:36;;;;;;;10.00;9.10;;;12.20;99.90;;;;;;5039027;28;20413;-67
2023/05/15 01:05:02;;;;;;;12.40;9.77;;;12.20;99.90;;;;;;5035056;28;20730;-67
2023/05/15 01:07:33;;;;;;;9.67;8.67;;;12.00;99.90;;;;;;5041282;28;20429;-68
2023/05/15 01:10:01;;;;;;;10.00;9.00;;;12.00;99.90;;;;;;5043047;28;20534;-68
2023/05/15 01:12:29;;;;;;;10.40;8.97;;;11.90;99.90;;;;;;5041061;28;20422;-68
2023/05/15 01:14:55;;;;;;;9.90;9.00;;;11.90;99.90;;;;;;5041792;28;20437;-67
2023/05/15 01:17:21;;;;;;;9.97;8.90;;;11.80;99.90;;;;;;5040206;28;20465;-68
2023/05/15 01:19:50;;;;;;;10.17;9.27;;;11.80;99.90;;;;;;5042132;28;20974;-68
2023/05/15 01:22:37;;;;;;;10.20;9.20;;;11.70;99.90;;;;;;5040812;28;20683;-68
2023/05/15 01:25:30;;;;;;;10.40;9.30;;;11.70;99.90;;;;;;5042336;28;20479;-68
2023/05/15 01:28:01;;;;;;;10.40;9.33;;;11.70;99.90;;;;;;5036248;28;20781;-69
2023/05/15 01:30:33;;;;;;;9.73;8.83;;;11.70;99.90;;;;;;5039616;28;20440;-68
2023/05/15 01:33:01;;;;;;;9.70;8.70;;;11.70;99.90;;;;;;5042687;28;20433;-68
2023/05/15 01:35:32;;;;;;;11.10;8.80;;;11.60;99.90;;;;;;5039338;28;20409;-68
2023/05/15 01:38:14;;;;;;;9.37;8.47;;;11.60;99.90;;;;;;5038298;28;20991;-68
2023/05/15 01:40:43;;;;;;;11.03;9.93;;;11.60;99.90;;;;;;5022551;28;20817;-68
2023/05/15 01:43:15;;;;;;;9.33;8.53;;;11.50;99.90;;;;;;5045662;28;20444;-67
2023/05/15 01:45:42;;;;;;;11.87;10.60;;;11.50;99.90;;;;;;5042631;28;20904;-67
2023/05/15 01:48:09;;;;;;;12.03;10.90;;;11.60;99.90;;;;;;5038111;28;20453;-67
2023/05/15 01:50:37;;;;;;;11.67;10.47;;;11.60;99.90;;;;;;5034621;28;20414;-67
2023/05/15 01:53:06;;;;;;;9.60;8.70;;;11.60;99.90;;;;;;5033856;28;20410;-67
2023/05/15 01:55:32;;;;;;;9.87;8.80;;;11.60;99.90;;;;;;5030353;28;20453;-67
2023/05/15 01:58:00;;;;;;;13.90;9.27;;;11.60;99.90;;;;;;5031304;28;20499;-67
2023/05/15 02:00:25;;;;;;;10.33;9.30;;;11.60;99.90;;;;;;5034515;28;20422;-68
2023/05/15 02:02:52;;;;;;;10.73;9.63;;;11.60;99.90;;;;;;5038073;28;20553;-67
2023/05/15 02:05:18;;;;;;;11.10;10.00;;;11.60;99.90;;;;;;5039242;28;20180;-67
2023/05/15 02:07:44;;;;;;;10.23;8.87;;;11.60;99.90;;;;;;5045099;28;20424;-68
2023/05/15 02:10:11;;;;;;;9.27;8.30;;;11.60;99.90;;;;;;5041585;28;20570;-67
2023/05/15 02:12:40;;;;;;;9.03;8.13;;;11.50;99.90;;;;;;5039443;28;21026;-67
2023/05/15 02:15:08;;;;;;;10.60;9.03;;;11.50;99.90;;;;;;5041336;28;20421;-67
2023/05/15 02:17:34;;;;;;;11.90;9.07;;;11.40;99.90;;;;;;5040563;28;20968;-68
2023/05/15 02:19:59;;;;;;;10.83;9.73;;;11.40;99.90;;;;;;5041542;28;20423;-68
2023/05/15 02:22:25;;;;;;;11.17;9.63;;;11.40;99.90;;;;;;5039822;28;20232;-67
2023/05/15 02:24:51;;;;;;;10.13;9.10;;;11.50;99.90;;;;;;5041302;28;20541;-67
2023/05/15 02:27:36;;;;;;;10.27;8.40;;;11.50;99.90;;;;;;5060532;22;20243;-67
2023/05/15 02:30:25;;;;;;;9.67;8.63;;;11.50;99.90;;;;;;5011145;28;20172;-67
2023/05/15 02:33:30;;;;;;;10.53;9.40;;;11.40;99.90;;;;;;5001504;28;20417;-67
2023/05/15 02:36:02;;;;;;;12.10;9.27;;;11.40;99.90;;;;;;5018317;28;20406;-67
2023/05/15 02:38:32;;;;;;;8.63;7.77;;;11.40;99.90;;;;;;5021687;28;20949;-68
2023/05/15 02:40:59;;;;;;;10.67;9.37;;;11.30;99.90;;;;;;5022648;28;20807;-67
2023/05/15 02:43:26;;;;;;;12.10;9.70;;;11.30;99.90;;;;;;5021255;28;20414;-66
2023/05/15 02:45:52;;;;;;;11.40;10.20;;;11.30;99.90;;;;;;5022709;28;20445;-67
2023/05/15 02:48:19;;;;;;;13.67;9.93;;;11.30;99.90;;;;;;5021667;28;20464;-67
2023/05/15 02:50:44;;;;;;;9.80;8.87;;;11.20;99.90;;;;;;5022722;28;20489;-68
2023/05/15 02:53:13;;;;;;;9.90;8.90;;;11.20;99.90;;;;;;5021242;28;20514;-67
2023/05/15 02:55:38;;;;;;;10.27;9.30;;;11.20;99.90;;;;;;5017859;28;20421;-67
2023/05/15 02:58:04;;;;;;;15.60;11.30;;;11.30;99.90;;;;;;5021488;28;20450;-67
2023/05/15 03:00:30;;;;;;;10.33;9.40;;;11.40;99.90;;;;;;5021827;28;20207;-67
2023/05/15 03:02:55;;;;;;;11.97;9.27;;;11.30;99.90;;;;;;5022316;28;20207;-67
2023/05/15 03:05:21;;;;;;;10.70;9.60;;;11.30;99.90;;;;;;5020353;28;20172;-66
2023/05/15 03:07:47;;;;;;;10.90;9.90;;;11.30;99.90;;;;;;5018616;28;20196;-68
2023/05/15 03:10:12;;;;;;;12.20;10.50;;;11.30;99.90;;;;;;5020648;28;20588;-67
2023/05/15 03:12:38;;;;;;;12.40;11.20;;;11.30;99.90;;;;;;5022944;28;20176;-67
2023/05/15 03:15:07;;;;;;;16.00;11.63;;;11.40;99.90;;;;;;5022641;28;20179;-67
2023/05/15 03:17:32;;;;;;;13.47;11.30;;;11.40;99.90;;;;;;5022642;28;20429;-67
2023/05/15 03:19:58;;;;;;;12.07;9.17;;;11.40;99.90;;;;;;5026599;28;20417;-67
2023/05/15 03:22:24;;;;;;;9.50;8.57;;;11.40;99.90;;;;;;5026176;28;20291;-67
2023/05/15 03:24:50;;;;;;;11.73;9.47;;;11.30;99.90;;;;;;5026041;28;20533;-66
2023/05/15 03:27:16;;;;;;;13.87;10.90;;;11.30;99.90;;;;;;5023623;28;20429;-67
2023/05/15 03:29:42;;;;;;;11.70;10.60;;;11.30;99.90;;;;;;5025622;28;20178;-67
2023/05/15 03:32:07;;;;;;;10.63;9.63;;;11.30;99.90;;;;;;5025150;28;20202;-67
2023/05/15 03:34:33;;;;;;;14.43;11.50;;;11.30;99.90;;;;;;5025275;28;20410;-67
2023/05/15 03:36:59;;;;;;;13.43;11.47;;;11.30;99.90;;;;;;5025631;28;20217;-67
2023/05/15 03:39:24;;;;;;;12.53;11.20;;;11.40;99.90;;;;;;5017148;28;20262;-66
2023/05/15 03:41:50;;;;;;;13.43;11.97;;;11.50;99.90;;;;;;5025782;28;20191;-67
2023/05/15 03:44:15;;;;;;;13.10;11.83;;;11.50;99.90;;;;;;5024431;28;20637;-67
2023/05/15 03:46:41;;;;;;;17.97;13.90;;;11.60;99.90;;;;;;5025596;28;20172;-66
2023/05/15 03:49:07;;;;;;;14.50;13.17;;;11.70;99.90;;;;;;5025192;28;20192;-67
2023/05/15 03:51:32;;;;;;;16.17;12.33;;;11.60;99.90;;;;;;5023224;28;20253;-68
2023/05/15 03:53:58;;;;;;;16.40;14.17;;;11.50;99.90;;;;;;5025615;28;20176;-67
2023/05/15 03:56:24;;;;;;;14.60;12.37;;;11.50;99.90;;;;;;5023876;28;20254;-67
2023/05/15 03:58:49;;;;;;;12.97;11.87;;;11.40;99.90;;;;;;5025397;28;20191;-67
2023/05/15 04:01:15;;;;;;;16.47;13.93;;;11.40;99.90;;;;;;5024566;28;20446;-66
2023/05/15 04:03:40;;;;;;;14.73;12.43;;;11.30;99.90;;;;;;5025197;28;20175;-67
2023/05/15 04:06:06;;;;;;;13.67;12.40;;;11.30;99.90;;;;;;5025173;28;20238;-67
2023/05/15 04:08:32;;;;;;;15.63;12.77;;;11.20;99.90;;;;;;5029871;28;20196;-67
2023/05/15 04:10:57;;;;;;;13.60;11.67;;;11.20;99.90;;;;;;5025229;28;20175;-67
2023/05/15 04:13:23;;;;;;;14.33;12.10;;;11.20;99.90;;;;;;5023259;28;20212;-67
2023/05/15 04:15:48;;;;;;;14.77;13.13;;;11.30;99.90;;;;;;5024853;28;20251;-68
2023/05/15 04:18:14;;;;;;;13.47;12.10;;;11.30;99.90;;;;;;5023800;28;20302;-67
2023/05/15 04:20:39;;;;;;;14.60;13.03;;;11.30;99.90;;;;;;5025569;28;20171;-67
2023/05/15 04:23:05;;;;;;;14.40;12.90;;;11.40;99.90;;;;;;5025189;28;20187;-67
2023/05/15 04:25:31;;;;;;;14.23;12.67;;;11.40;99.90;;;;;;5022670;28;20233;-67
2023/05/15 04:27:56;;;;;;;15.73;12.97;;;11.50;99.90;;;;;;5024976;28;20213;-67
2023/05/15 04:30:22;;;;;;;13.70;12.30;;;11.60;99.90;;;;;;5022476;28;20177;-68
2023/05/15 04:32:48;;;;;;;12.80;11.50;;;11.70;99.90;;;;;;5024873;28;20176;-67
2023/05/15 04:35:14;;;;;;;15.20;11.90;;;11.80;99.90;;;;;;5023734;28;20535;-67
2023/05/15 04:37:41;;;;;;;13.43;12.13;;;11.90;99.90;;;;;;5023596;28;20459;-67
2023/05/15 04:40:08;;;;;;;17.60;13.43;;;11.90;99.90;;;;;;5027029;28;20180;-66
2023/05/15 04:42:35;;;;;;;16.23;11.90;;;11.90;99.90;;;;;;5021126;28;20418;-67
2023/05/15 04:45:01;;;;;;;15.50;11.07;;;12.00;99.90;;;;;;5026941;28;20452;-67
2023/05/15 04:47:26;;;;;;;13.27;12.03;;;12.00;99.90;;;;;;5022467;28;20454;-69
2023/05/15 04:49:52;;;;;;;13.00;11.33;;;12.10;99.90;;;;;;5020878;28;20893;-67
2023/05/15 04:52:18;;;;;;;17.00;12.20;;;12.10;99.90;;;;;;5026969;28;20186;-69
2023/05/15 04:54:43;;;;;;;14.23;11.20;;;12.20;99.90;;;;;;5020675;28;20177;-68
2023/05/15 04:57:09;;;;;;;12.17;11.03;;;12.40;99.90;;;;;;5027349;28;20192;-67
2023/05/15 04:59:35;;;;;;;15.60;12.00;;;12.40;99.90;;;;;;5020650;28;20168;-67
2023/05/15 05:02:01;;;;;;;11.13;10.00;;;12.60;99.90;;;;;;5026870;28;20254;-66
2023/05/15 05:04:27;;;;;;;10.83;9.73;;;12.90;99.90;;;;;;5021783;28;20180;-68
2023/05/15 05:06:52;;;;;;;10.60;9.13;;;13.20;99.90;;;;;;5020996;28;20514;-68
2023/05/15 05:09:19;;;;;;;9.00;8.07;;;13.60;99.90;;;;;;5020662;28;20199;-68
2023/05/15 05:11:45;;;;;;;9.20;8.17;;;14.10;99.90;;;;;;5020866;28;20174;-66
2023/05/15 05:14:11;;;;;;;10.07;8.30;;;14.10;99.90;;;;;;5026929;28;20472;-65
2023/05/15 05:16:37;;;;;;;9.87;8.93;;;14.40;99.90;;;;;;5020182;28;20466;-67
2023/05/15 05:19:03;;;;;;;11.40;8.47;;;14.90;99.90;;;;;;5026920;28;20433;-67
2023/05/15 05:21:29;;;;;;;10.07;9.13;;;15.20;99.90;;;;;;5021902;28;20434;-67
2023/05/15 05:23:55;;;;;;;9.10;8.30;;;15.60;99.90;;;;;;5015092;28;20405;-67
2023/05/15 05:26:21;;;;;;;11.93;8.33;;;16.30;99.90;;;;;;5026262;28;20456;-67
2023/05/15 05:28:47;;;;;;;11.77;8.40;;;16.60;99.90;;;;;;5020253;28;20207;-67
2023/05/15 05:31:12;;;;;;;8.43;7.60;;;16.80;99.90;;;;;;5027359;28;20175;-67
2023/05/15 05:33:38;;;;;;;7.33;5.67;;;16.90;99.90;;;;;;5020530;28;20479;-67
2023/05/15 05:36:04;;;;;;;8.43;7.10;;;17.40;99.90;;;;;;5022708;28;20175;-66
2023/05/15 05:38:31;;;;;;;7.30;6.60;;;17.90;99.90;;;;;;5022753;28;20207;-66
2023/05/15 05:40:57;;;;;;;8.90;6.83;;;18.50;99.90;;;;;;5023973;28;20418;-67
2023/05/15 05:43:24;;;;;;;8.47;7.70;;;18.00;99.90;;;;;;5021815;28;20412;-67
2023/05/15 05:45:50;;;;;;;7.43;6.83;;;18.30;99.90;;;;;;5025458;28;20258;-67
2023/05/15 05:48:15;;;;;;;8.30;7.50;;;17.90;99.90;;;;;;5021019;28;20531;-69
2023/05/15 05:50:41;;;;;;;8.00;7.07;;;17.90;99.90;;;;;;5023826;28;20261;-74
2023/05/15 05:53:06;;;;;;;7.57;6.87;;;17.90;99.90;;;;;;5022087;28;20174;-73
2023/05/15 05:55:32;;;;;;;8.30;7.60;;;17.90;99.90;;;;;;5023469;28;20171;-63
2023/05/15 05:57:57;;;;;;;7.23;6.57;;;17.90;99.90;;;;;;5023976;28;20213;-63
2023/05/15 06:00:24;;;;;;;7.33;6.73;;;17.50;99.90;;;;;;5022080;28;20176;-67
2023/05/15 06:02:54;;;;;;;10.63;7.00;;;17.40;99.90;;;;;;5026103;28;20177;-68
2023/05/15 06:05:20;;;;;;;8.60;7.13;;;17.30;99.90;;;;;;5022398;28;20411;-68
2023/05/15 06:07:46;;;;;;;8.77;7.87;;;17.60;99.90;;;;;;5025403;28;20440;-68
2023/05/15 06:10:12;;;;;;;8.90;6.60;;;17.40;99.90;;;;;;5020239;28;20197;-67
2023/05/15 06:12:38;;;;;;;8.20;7.50;;;17.50;99.90;;;;;;5016136;28;20421;-68
2023/05/15 06:15:04;;;;;;;8.30;7.07;;;17.60;99.90;;;;;;5027349;28;20430;-68
2023/05/15 06:17:30;;;;;;;10.20;7.37;;;17.80;99.90;;;;;;5024075;28;20230;-68
2023/05/15 06:19:56;;;;;;;8.70;7.80;;;17.80;99.90;;;;;;5024792;28;20416;-68
2023/05/15 06:22:21;;;;;;;9.33;7.80;;;17.50;99.90;;;;;;5023160;28;20492;-68
2023/05/15 06:24:47;;;;;;;9.97;7.83;;;17.40;99.90;;;;;;5024467;28;20173;-67
2023/05/15 06:27:12;;;;;;;7.90;7.20;;;17.50;99.90;;;;;;5021001;28;20185;-69
2023/05/15 06:29:38;;;;;;;9.00;8.10;;;17.80;99.90;;;;;;5013205;28;20609;-67
2023/05/15 06:32:04;;;;;;;9.27;8.37;;;17.90;99.90;;;;;;5020247;28;20195;-67
2023/05/15 06:34:29;;;;;;;10.97;7.10;;;17.90;99.90;;;;;;5023396;28;20176;-67
2023/05/15 06:36:55;;;;;;;10.40;6.53;;;17.80;99.90;;;;;;5025436;28;20798;-67
2023/05/15 06:39:20;;;;;;;8.90;7.93;;;17.90;99.90;;;;;;5020902;28;20391;-67
2023/05/15 06:41:46;;;;;;;7.87;7.10;;;18.40;99.90;;;;;;5022830;28;20168;-68
2023/05/15 06:44:12;;;;;;;8.33;7.50;;;18.40;99.90;;;;;;5020675;28;20304;-67
2023/05/15 06:46:37;;;;;;;8.67;7.53;;;18.60;99.90;;;;;;5022938;28;20200;-68
2023/05/15 06:49:03;;;;;;;9.03;6.87;;;18.30;99.90;;;;;;5022663;28;20517;-67
2023/05/15 06:51:28;;;;;;;7.10;6.50;;;18.60;99.90;;;;;;5020242;28;20591;-68
2023/05/15 06:53:54;;;;;;;10.00;6.87;;;18.90;99.90;;;;;;5025058;28;20247;-67
2023/05/15 06:56:20;;;;;;;10.40;7.07;;;18.70;99.90;;;;;;5024552;28;20198;-67
2023/05/15 06:58:46;;;;;;;8.73;7.83;;;18.60;99.90;;;;;;5026223;28;20197;-67
2023/05/15 07:01:12;;;;;;;8.73;7.00;;;18.60;99.90;;;;;;5025497;28;20427;-69
2023/05/15 07:03:38;;;;;;;11.67;7.00;;;18.50;99.90;;;;;;5026380;28;20259;-67
2023/05/15 07:06:04;;;;;;;9.37;7.40;;;18.40;99.90;;;;;;5026474;28;20413;-67
2023/05/15 07:08:30;;;;;;;8.03;7.27;;;18.60;99.90;;;;;;5023584;28;20434;-68
2023/05/15 07:10:55;;;;;;;8.80;7.53;;;19.00;99.90;;;;;;5026159;28;20181;-67
2023/05/15 07:13:21;;;;;;;9.23;6.50;;;19.00;99.90;;;;;;5024468;28;20166;-67
2023/05/15 07:15:46;;;;;;;8.33;7.53;;;18.90;99.90;;;;;;5026010;28;20189;-67
2023/05/15 07:18:12;;;;;;;10.77;8.60;;;18.60;99.90;;;;;;5024549;28;20214;-68
2023/05/15 07:20:38;;;;;;;8.40;7.60;;;18.70;99.90;;;;;;5025988;28;20520;-68
2023/05/15 07:23:04;;;;;;;11.57;7.47;;;18.70;99.90;;;;;;5025903;28;20267;-68
2023/05/15 07:25:30;;;;;;;10.33;7.53;;;18.80;99.90;;;;;;5023369;28;20175;-68
2023/05/15 07:27:56;;;;;;;7.40;6.70;;;18.60;99.90;;;;;;5025322;28;20825;-67
2023/05/15 07:30:21;;;;;;;7.37;6.67;;;18.70;99.90;;;;;;5024094;28;20187;-67
2023/05/15 07:32:47;;;;;;;6.83;6.23;;;18.60;99.90;;;;;;5025966;28;20263;-67
2023/05/15 07:35:13;;;;;;;8.23;6.33;;;18.60;99.90;;;;;;5024913;28;20546;-67
2023/05/15 07:37:39;;;;;;;6.67;6.07;;;18.50;99.90;;;;;;5025014;28;20397;-67
2023/05/15 07:40:06;;;;;;;9.97;7.60;;;18.60;99.90;;;;;;5028244;28;20179;-67
2023/05/15 07:42:32;;;;;;;7.07;6.37;;;18.80;99.90;;;;;;5022253;28;20406;-67
2023/05/15 07:44:57;;;;;;;7.70;7.00;;;18.80;99.90;;;;;;5027706;28;20781;-68
2023/05/15 07:47:23;;;;;;;10.03;5.87;;;19.00;99.90;;;;;;5023486;28;20337;-68
2023/05/15 07:49:48;;;;;;;6.70;6.10;;;19.00;99.90;;;;;;5022139;28;20167;-68
2023/05/15 07:52:14;;;;;;;6.23;5.73;;;18.80;99.90;;;;;;5027725;28;20205;-68
2023/05/15 07:54:43;;;;;;;6.07;5.47;;;18.80;99.90;;;;;;5021724;28;20176;-67
2023/05/15 07:57:09;;;;;;;5.67;5.27;;;19.00;99.90;;;;;;5027780;28;20207;-67
2023/05/15 07:59:35;;;;;;;6.30;5.70;;;19.50;99.90;;;;;;5021852;28;20415;-68
2023/05/15 08:02:01;;;;;;;6.10;5.50;;;19.00;99.90;;;;;;5028489;28;20426;-67
2023/05/15 08:04:26;;;;;;;9.90;6.17;;;19.00;99.90;;;;;;5023043;28;20422;-67
2023/05/15 08:06:52;;;;;;;6.30;5.70;;;19.10;99.90;;;;;;5022315;28;20469;-70
2023/05/15 08:09:18;;;;;;;9.13;6.10;;;19.30;99.90;;;;;;5027630;28;20197;-68
2023/05/15 08:11:43;;;;;;;6.30;5.70;;;19.30;99.90;;;;;;5021776;28;20645;-68
2023/05/15 08:14:09;;;;;;;9.43;6.47;;;19.20;99.90;;;;;;5028577;28;20176;-67
2023/05/15 08:16:35;;;;;;;8.47;6.90;;;19.00;99.90;;;;;;5021954;28;20177;-68
2023/05/15 08:19:03;;;;;;;6.00;5.40;;;19.00;99.90;;;;;;5027871;28;20192;-68
2023/05/15 08:21:29;;;;;;;9.00;6.57;;;18.80;99.90;;;;;;5022703;28;20262;-67
2023/05/15 08:23:56;;;;;;;6.30;5.70;;;18.90;99.90;;;;;;5016299;28;20471;-67
2023/05/15 08:26:21;;;;;;;6.47;5.87;;;18.90;99.90;;;;;;5027328;28;20407;-68
2023/05/15 08:28:47;;;;;;;7.67;6.10;;;18.80;99.90;;;;;;5021086;28;20495;-67
2023/05/15 08:31:13;;;;;;;6.93;5.07;;;19.10;99.90;;;;;;5028233;28;20182;-68
2023/05/15 08:33:38;;;;;;;6.00;5.43;;;19.10;99.90;;;;;;5021588;28;20644;-67
2023/05/15 08:36:04;;;;;;;5.77;5.17;;;19.20;99.90;;;;;;5024463;28;20174;-67
2023/05/15 08:38:30;;;;;;;6.20;5.60;;;19.00;99.90;;;;;;5023953;28;20214;-68
2023/05/15 08:40:57;;;;;;;8.83;7.57;;;19.00;99.90;;;;;;5024899;28;20171;-68
2023/05/15 08:43:25;;;;;;;6.70;4.67;;;18.90;99.90;;;;;;5023270;28;20593;-68
2023/05/15 08:45:53;;;;;;;6.07;5.57;;;19.00;99.90;;;;;;5026637;28;20458;-68
2023/05/15 08:48:20;;;;;;;6.90;5.27;;;19.10;99.90;;;;;;5022451;28;20867;-68
2023/05/15 08:50:46;;;;;;;5.73;5.23;;;19.10;99.90;;;;;;5024448;28;20495;-69
2023/05/15 08:53:12;;;;;;;8.33;5.17;;;19.20;99.90;;;;;;5021853;28;20558;-67
2023/05/15 08:55:39;;;;;;;7.63;5.50;;;18.90;99.90;;;;;;5024612;28;20168;-69
2023/05/15 08:58:05;;;;;;;6.30;5.70;;;19.00;99.90;;;;;;5023132;28;20459;-68
2023/05/15 09:00:31;;;;;;;7.33;5.57;;;18.80;99.90;;;;;;5023544;28;20410;-68
2023/05/15 09:03:00;;;;;;;6.67;5.63;;;18.70;99.90;;;;;;5025040;28;20479;-68
2023/05/15 09:05:29;;;;;;;6.20;5.57;;;18.70;99.90;;;;;;5022413;28;20420;-66
2023/05/15 09:07:57;;;;;;;10.27;6.00;;;18.70;99.90;;;;;;5023359;28;20443;-67
2023/05/15 09:10:23;;;;;;;6.17;5.37;;;19.00;99.90;;;;;;5021991;28;20972;-68
2023/05/15 09:12:51;;;;;;;5.37;4.57;;;19.10;99.90;;;;;;5024157;28;20406;-67
2023/05/15 09:15:20;;;;;;;6.90;6.13;;;19.20;99.90;;;;;;5021887;28;20200;-67
2023/05/15 09:17:46;;;;;;;5.57;5.07;;;19.00;99.90;;;;;;5025548;28;20998;-67
2023/05/15 09:20:33;;;;;;;6.10;5.50;;;19.10;99.90;;;;;;5022850;28;20412;-68
2023/05/15 09:23:01;;;;;;;5.90;5.17;;;19.00;99.90;;;;;;5023980;28;20398;-67
2023/05/15 09:25:40;;;;;;;6.40;5.80;;;19.40;99.90;;;;;;5021267;28;20465;-67
2023/05/15 09:28:10;;;;;;;5.50;5.00;;;19.40;99.90;;;;;;5023642;28;20489;-67
2023/05/15 09:30:41;;;;;;;9.13;6.17;;;19.10;99.90;;;;;;5023370;28;20427;-66
2023/05/15 09:33:08;;;;;;;6.60;6.10;;;19.40;99.90;;;;;;5023689;28;20556;-66
2023/05/15 09:35:39;;;;;;;8.10;6.00;;;19.60;99.90;;;;;;5022807;28;20961;-67
2023/05/15 09:38:10;;;;;;;6.30;5.03;;;19.60;99.90;;;;;;5015953;28;20514;-68
2023/05/15 09:40:37;;;;;;;6.60;6.10;;;19.30;99.90;;;;;;5019042;28;20468;-67
2023/05/15 09:43:03;;;;;;;5.93;5.33;;;19.60;99.90;;;;;;5020053;28;20422;-67
2023/05/15 09:45:30;;;;;;;6.13;5.53;;;20.00;99.90;;;;;;5027297;28;20413;-68
2023/05/15 09:47:58;;;;;;;5.23;4.17;;;20.00;99.90;;;;;;5019988;28;20196;-68
2023/05/15 09:50:36;;;;;;;5.93;5.17;;;20.20;99.90;;;;;;5020504;28;20442;-68
2023/05/15 09:53:03;;;;;;;6.80;6.10;;;20.50;99.90;;;;;;5022017;28;20411;-67
2023/05/15 09:55:32;;;;;;;5.60;4.97;;;20.30;99.90;;;;;;5022276;28;20430;-68
2023/05/15 09:58:17;;;;;;;7.30;5.00;;;20.40;99.90;;;;;;5023996;28;20465;-68
2023/05/15 10:00:44;;;;;;;5.00;4.47;;;20.10;99.90;;;;;;5011623;28;20497;-68
2023/05/15 10:03:10;;;;;;;5.07;4.67;;;20.20;99.90;;;;;;5022548;28;20898;-67
2023/05/15 10:05:37;;;;;;;7.10;4.50;;;20.00;99.90;;;;;;5017700;28;20425;-67
2023/05/15 10:08:03;;;;;;;5.17;4.67;;;19.60;99.90;;;;;;5021602;28;20813;-68
2023/05/15 10:10:30;;;;;;;5.50;5.00;;;19.60;99.70;;;;;;5022132;28;20445;-67
2023/05/15 10:13:00;;;;;;;5.13;4.67;;;19.50;99.30;;;;;;5023299;28;20416;-68
2023/05/15 10:15:26;;;;;;;4.47;4.13;;;19.70;98.90;;;;;;5020505;28;20913;-67
2023/05/15 10:17:52;;;;;;;6.63;4.20;;;19.60;99.10;;;;;;5022740;28;20591;-67
2023/05/15 10:20:20;;;;;;;6.40;4.80;;;19.20;99.90;;;;;;5021996;28;20450;-66
2023/05/15 10:22:50;;;;;;;6.10;4.73;;;18.90;99.90;;;;;;5023060;28;20462;-67
2023/05/15 10:25:40;;;;;;;6.77;4.67;;;18.80;99.90;;;;;;5020746;28;20396;-68
2023/05/15 10:28:09;;;;;;;6.90;5.27;;;18.70;99.90;;;;;;5023771;28;20595;-67
2023/05/15 10:30:36;;;;;;;4.37;3.97;;;18.60;99.90;;;;;;5025361;28;20417;-69
2023/05/15 10:33:04;;;;;;;5.43;4.53;;;18.70;99.90;;;;;;5027125;28;20414;-68
2023/05/15 10:35:30;;;;;;;6.53;4.80;;;18.70;99.90;;;;;;5023227;28;20972;-67
2023/05/15 10:37:56;;;;;;;4.50;4.20;;;18.60;99.90;;;;;;5015954;28;20462;-68
2023/05/15 10:40:23;;;;;;;6.20;4.60;;;18.70;99.90;;;;;;5029965;28;20413;-67
2023/05/15 10:42:49;;;;;;;5.47;4.63;;;18.70;99.90;;;;;;5023169;28;20403;-68
2023/05/15 10:45:14;;;;;;;4.70;3.80;;;18.60;99.90;;;;;;5030821;28;20465;-67
2023/05/15 10:47:42;;;;;;;4.97;4.10;;;18.60;99.90;;;;;;5023049;28;20975;-67
2023/05/15 10:50:09;;;;;;;5.47;4.47;;;18.70;99.90;;;;;;5023568;28;20215;-68
2023/05/15 10:52:36;;;;;;;5.03;4.30;;;18.70;99.90;;;;;;5029484;28;20411;-66
2023/05/15 10:55:06;;;;;;;4.20;3.90;;;18.80;99.90;;;;;;5023411;28;20415;-67
2023/05/15 10:57:31;;;;;;;4.83;4.40;;;18.90;99.90;;;;;;5029821;28;20485;-66
2023/05/15 10:59:57;;;;;;;4.30;3.90;;;19.20;99.90;;;;;;5023101;28;20415;-67
2023/05/15 11:02:29;;;;;;;4.37;2.90;;;19.20;99.90;;;;;;5030684;28;20173;-67
2023/05/15 11:05:04;;;;;;;3.50;3.20;;;19.00;99.90;;;;;;5023035;28;20872;-67
2023/05/15 11:07:29;;;;;;;3.40;2.80;;;19.50;99.90;;;;;;5025523;28;20435;-67
2023/05/15 11:09:55;;;;;;;3.67;3.30;;;20.00;99.90;;;;;;5026176;28;20426;-67
2023/05/15 11:12:22;;;;;;;4.70;2.83;;;20.20;99.90;;;;;;5024607;28;20541;-67
2023/05/15 11:14:50;;;;;;;7.80;3.13;;;20.50;99.90;;;;;;5027762;28;20413;-68
2023/05/15 11:17:17;;;;;;;4.57;2.83;;;20.90;99.90;;;;;;5023399;28;20455;-66
2023/05/15 11:19:48;;;;;;;3.67;2.53;;;21.00;98.50;;;;;;5028954;28;20413;-67
2023/05/15 11:22:21;;;;;;;2.60;2.40;;;21.10;96.60;;;;;;5020411;28;20489;-67
2023/05/15 11:24:57;;;;;;;2.97;2.67;;;21.00;97.00;;;;;;5026053;28;20803;-68
2023/05/15 11:27:43;;;;;;;2.50;2.40;;;20.90;96.20;;;;;;5019208;28;20489;-68
2023/05/15 11:30:20;;;;;;;3.50;3.20;;;21.20;96.20;;;;;;5024722;28;20421;-67
2023/05/15 11:32:46;;;;;;;3.30;2.97;;;21.70;96.20;;;;;;5019561;28;20465;-69
2023/05/15 11:35:28;;;;;;;3.00;2.67;;;21.30;95.80;;;;;;5016984;28;20421;-66
2023/05/15 11:37:56;;;;;;;2.80;2.60;;;21.10;96.70;;;;;;5022017;28;20211;-67
2023/05/15 11:40:28;;;;;;;2.83;2.50;;;21.40;96.50;;;;;;5028501;28;20502;-67
2023/05/15 11:43:02;;;;;;;3.47;3.03;;;21.70;96.60;;;;;;5022548;28;20410;-68
2023/05/15 11:45:30;;;;;;;4.03;3.27;;;21.60;95.90;;;;;;5032042;28;20424;-67
2023/05/15 11:47:58;;;;;;;3.57;3.30;;;20.90;96.60;;;;;;5024256;28;20439;-68
2023/05/15 11:50:24;;;;;;;5.77;4.03;;;20.60;97.40;;;;;;5023925;28;20445;-68
2023/05/15 11:52:50;;;;;;;3.90;3.50;;;20.40;97.40;;;;;;5026866;28;20503;-68
2023/05/15 11:55:18;;;;;;;11.17;3.70;;;20.20;97.60;;;;;;5022769;28;21043;-66
2023/05/15 11:57:45;;;;;;;3.60;3.30;;;20.30;98.30;;;;;;5027614;28;20473;-67
2023/05/15 12:00:12;;;;;;;4.03;3.73;;;20.20;99.80;;;;;;5022208;28;20408;-68
2023/05/15 12:02:37;;;;;;;4.20;3.30;;;20.50;98.40;;;;;;5029438;28;20924;-68
2023/05/15 12:05:07;;;;;;;3.70;3.40;;;20.80;98.30;;;;;;5021588;28;20500;-68
2023/05/15 12:07:40;;;;;;;4.13;3.77;;;20.80;98.10;;;;;;5024870;28;20201;-68
2023/05/15 12:10:08;;;;;;;4.13;3.23;;;20.80;97.50;;;;;;5023545;28;20420;-67
2023/05/15 12:12:35;;;;;;;3.40;3.10;;;21.10;97.30;;;;;;5025051;28;20422;-68
2023/05/15 12:15:01;;;;;;;2.77;2.57;;;21.30;97.20;;;;;;5024820;28;20412;-68
2023/05/15 12:17:26;;;;;;;3.53;2.37;;;21.70;94.80;;;;;;5023816;28;20466;-68
2023/05/15 12:19:54;;;;;;;2.10;2.00;;;22.00;93.60;;;;;;5026923;28;20210;-68
2023/05/15 12:22:20;;;;;;;2.20;2.00;;;22.30;93.00;;;;;;5023130;28;20204;-67
2023/05/15 12:24:46;;;;;;;2.87;2.67;;;22.40;92.70;;;;;;5025286;28;20417;-68
2023/05/15 12:27:13;;;;;;;2.80;2.60;;;22.20;93.00;;;;;;5022493;28;20412;-68
2023/05/15 12:29:39;;;;;;;3.07;2.50;;;22.40;92.30;;;;;;5025304;28;20179;-68
2023/05/15 12:32:06;;;;;;;2.87;2.67;;;22.80;92.70;;;;;;5024829;28;20410;-68
2023/05/15 12:34:32;;;;;;;2.97;2.70;;;22.80;91.80;;;;;;5024539;28;20467;-68
2023/05/15 12:36:58;;;;;;;3.03;2.73;;;22.80;92.80;;;;;;5027601;28;20452;-67
2023/05/15 12:39:25;;;;;;;3.00;2.80;;;22.90;93.30;;;;;;5023228;28;20479;-67
2023/05/15 12:41:53;;;;;;;4.60;3.03;;;22.80;92.50;;;;;;5024703;28;20413;-67